Terminal Aerodrome Forecast
Issued by NWS

Home | Current Version | Previous Version | Text Only | Print | Product List | Glossary On
Versions: 1 2 3 4 5 6 7 8 9 10 11 12 13 14 15 16 17 18 19 20 21
000
FTUS43 KAPX 221735
TAFMBL
TAF
KMBL 221735Z 2218/2318 12007KT P6SM BKN080
     FM230000 11007KT P6SM -RASN SCT015 OVC035
     FM230300 11008KT 5SM -RA BR OVC015
     FM230500 10010KT 4SM -RA BR OVC007
      AMD LTD TO CLD VIS AND WIND=

USA.gov is the U.S. government's official web portal to all federal, state and local government web resources and services.